createdAt,value
2023-05-16T00:01:44.201Z,2.90
2023-05-16T00:04:12.715Z,3.70
2023-05-16T00:06:41.259Z,3.20
2023-05-16T00:09:09.607Z,3.40
2023-05-16T00:11:38.019Z,3.30
2023-05-16T00:14:06.378Z,3.70
2023-05-16T00:16:37.334Z,3.30
2023-05-16T00:19:06.767Z,3.50
2023-05-16T00:21:35.189Z,3.40
2023-05-16T00:24:05.258Z,3.10
2023-05-16T00:26:33.620Z,3.50
2023-05-16T00:29:02.627Z,3.40
2023-05-16T00:31:32.383Z,3.20
2023-05-16T00:34:00.832Z,3.50
2023-05-16T00:36:29.363Z,3.70
2023-05-16T00:38:57.686Z,3.50
2023-05-16T00:41:26.418Z,3.50
2023-05-16T00:43:54.809Z,3.60
2023-05-16T00:46:23.399Z,3.80
2023-05-16T00:48:53.799Z,3.30
2023-05-16T00:51:22.230Z,3.10
2023-05-16T00:53:50.649Z,3.30
2023-05-16T00:56:21.753Z,3.50
2023-05-16T00:58:52.827Z,4.00
2023-05-16T01:01:24.785Z,4.00
2023-05-16T01:03:54.665Z,3.60
2023-05-16T01:06:23.224Z,3.80
2023-05-16T01:08:51.589Z,3.90
2023-05-16T01:11:37.326Z,3.90
2023-05-16T01:14:24.784Z,3.80
2023-05-16T01:16:59.124Z,4.10
2023-05-16T01:19:39.991Z,4.10
2023-05-16T01:22:27.867Z,4.20
2023-05-16T01:25:08.576Z,4.70
2023-05-16T01:27:39.176Z,4.60
2023-05-16T01:30:20.156Z,4.60
2023-05-16T01:32:48.743Z,4.60
2023-05-16T01:35:17.920Z,4.40
2023-05-16T01:38:10.268Z,3.80
2023-05-16T01:41:04.317Z,3.50
2023-05-16T01:43:47.929Z,3.20
2023-05-16T01:46:25.700Z,2.80
2023-05-16T01:49:02.355Z,3.70
2023-05-16T01:51:35.906Z,4.10
2023-05-16T01:54:31.773Z,3.40
2023-05-16T01:57:01.703Z,4.30
2023-05-16T01:59:31.001Z,4.90
2023-05-16T02:01:59.551Z,4.20
2023-05-16T02:04:28.007Z,3.90
2023-05-16T02:06:57.364Z,4.10
2023-05-16T02:09:26.263Z,3.80
2023-05-16T02:11:54.696Z,3.90
2023-05-16T02:14:23.113Z,4.40
2023-05-16T02:16:52.209Z,3.70
2023-05-16T02:19:20.994Z,3.80
2023-05-16T02:21:49.353Z,4.80
2023-05-16T02:24:17.707Z,4.50
2023-05-16T02:26:46.174Z,4.60
2023-05-16T02:29:16.447Z,4.50
2023-05-16T02:31:44.905Z,4.20
2023-05-16T02:34:14.002Z,4.60
2023-05-16T02:36:43.824Z,4.30
2023-05-16T02:39:12.260Z,4.70
2023-05-16T02:41:40.749Z,4.50
2023-05-16T02:44:10.299Z,4.30
2023-05-16T02:46:38.652Z,4.40
2023-05-16T02:49:07.406Z,4.40
2023-05-16T02:51:35.780Z,5.00
2023-05-16T02:54:04.189Z,4.60
2023-05-16T02:56:32.511Z,4.40
2023-05-16T02:59:00.993Z,4.70
2023-05-16T03:01:29.368Z,4.50
2023-05-16T03:03:57.930Z,4.50
2023-05-16T03:06:26.633Z,5.10
2023-05-16T03:08:54.954Z,5.20
2023-05-16T03:11:24.295Z,5.80
2023-05-16T03:13:52.605Z,6.30
2023-05-16T03:16:21.813Z,6.30
2023-05-16T03:18:50.452Z,7.60
2023-05-16T03:21:18.825Z,8.30
2023-05-16T03:23:47.231Z,8.00
2023-05-16T03:26:15.642Z,8.00
2023-05-16T03:28:43.920Z,6.30
2023-05-16T03:31:12.252Z,6.00
2023-05-16T03:33:40.613Z,5.60
2023-05-16T03:36:09.666Z,5.20
2023-05-16T03:38:38.207Z,4.80
2023-05-16T03:41:06.673Z,5.20
2023-05-16T03:43:35.169Z,4.30
2023-05-16T03:46:03.843Z,4.70
2023-05-16T03:48:32.335Z,5.00
2023-05-16T03:51:00.717Z,4.40
2023-05-16T03:53:29.020Z,4.20
2023-05-16T03:55:57.326Z,4.60
2023-05-16T03:58:25.847Z,3.60
2023-05-16T04:00:54.265Z,3.90
2023-05-16T04:03:28.757Z,4.00
2023-05-16T04:05:58.306Z,3.80
2023-05-16T04:08:27.018Z,4.20
2023-05-16T04:10:56.190Z,4.20
2023-05-16T04:13:25.663Z,4.20
2023-05-16T04:15:54.362Z,4.40
2023-05-16T04:18:22.692Z,3.80
2023-05-16T04:20:51.044Z,3.50
2023-05-16T04:23:19.413Z,3.70
2023-05-16T04:25:48.045Z,3.80
2023-05-16T04:28:16.626Z,4.40
2023-05-16T04:30:44.992Z,3.80
2023-05-16T04:33:13.422Z,4.10
2023-05-16T04:35:41.923Z,4.00
2023-05-16T04:38:10.223Z,3.80
2023-05-16T04:40:38.866Z,3.90
2023-05-16T04:43:07.233Z,3.90
2023-05-16T04:45:37.661Z,4.00
2023-05-16T04:48:06.648Z,4.60
2023-05-16T04:50:35.041Z,4.30
2023-05-16T04:53:03.395Z,4.40
2023-05-16T04:55:31.875Z,3.80
2023-05-16T04:58:00.177Z,3.70
2023-05-16T05:00:28.863Z,4.10
2023-05-16T05:02:57.617Z,3.90
2023-05-16T05:05:26.269Z,3.90
2023-05-16T05:07:54.944Z,4.20
2023-05-16T05:10:23.188Z,4.20
2023-05-16T05:12:51.705Z,3.90
2023-05-16T05:15:20.467Z,5.10
2023-05-16T05:17:48.856Z,4.40
2023-05-16T05:20:17.275Z,3.80
2023-05-16T05:22:45.665Z,3.70
2023-05-16T05:25:14.700Z,3.80
2023-05-16T05:27:43.082Z,3.90
2023-05-16T05:30:11.883Z,3.40
2023-05-16T05:32:40.343Z,4.30
2023-05-16T05:35:08.956Z,3.70
2023-05-16T05:37:37.307Z,3.30
2023-05-16T05:40:06.401Z,3.60
2023-05-16T05:42:34.771Z,3.60
2023-05-16T05:45:03.302Z,3.40
2023-05-16T05:47:31.931Z,3.50
2023-05-16T05:50:00.457Z,3.20
2023-05-16T05:52:29.009Z,3.70
2023-05-16T05:54:59.568Z,3.00
2023-05-16T05:57:28.179Z,3.20
2023-05-16T05:59:56.596Z,3.10
2023-05-16T06:02:25.313Z,2.90
2023-05-16T06:04:53.835Z,3.40
2023-05-16T06:07:22.249Z,2.80
2023-05-16T06:09:50.570Z,3.00
2023-05-16T06:12:18.892Z,4.00
2023-05-16T06:14:47.208Z,3.20
2023-05-16T06:17:15.690Z,3.70
2023-05-16T06:19:44.106Z,2.70
2023-05-16T06:22:12.476Z,3.00
2023-05-16T06:24:40.972Z,2.80
2023-05-16T06:27:09.650Z,2.80
2023-05-16T06:29:38.260Z,2.50
2023-05-16T06:32:06.953Z,2.60
2023-05-16T06:34:35.487Z,2.60
2023-05-16T06:37:03.999Z,2.90
2023-05-16T06:39:32.328Z,2.80
2023-05-16T06:42:01.054Z,2.50
2023-05-16T06:44:32.809Z,3.00
2023-05-16T06:47:01.570Z,3.10
2023-05-16T06:49:30.103Z,3.20
2023-05-16T06:51:58.455Z,3.20
2023-05-16T06:54:26.880Z,2.80
2023-05-16T06:56:55.290Z,2.50
2023-05-16T06:59:24.840Z,3.00
2023-05-16T07:01:53.550Z,2.90
2023-05-16T07:04:21.999Z,2.60
2023-05-16T07:06:50.445Z,2.70
2023-05-16T07:09:19.199Z,2.80
2023-05-16T07:11:47.615Z,2.70
2023-05-16T07:14:16.109Z,2.70
2023-05-16T07:16:44.784Z,2.70
2023-05-16T07:19:13.291Z,2.50
2023-05-16T07:21:41.893Z,3.00
2023-05-16T07:24:13.374Z,3.20
2023-05-16T07:26:43.015Z,2.50
2023-05-16T07:29:12.174Z,2.30
2023-05-16T07:31:40.932Z,2.70
2023-05-16T07:34:10.642Z,2.80
2023-05-16T07:36:39.377Z,2.80
2023-05-16T07:39:07.903Z,2.80
2023-05-16T07:41:36.444Z,2.90
2023-05-16T07:44:04.941Z,3.20
2023-05-16T07:46:33.502Z,2.90
2023-05-16T07:49:02.032Z,2.80
2023-05-16T07:51:30.815Z,3.30
2023-05-16T07:53:59.279Z,3.40
2023-05-16T07:56:27.996Z,2.70
2023-05-16T07:58:56.554Z,2.60
2023-05-16T08:01:25.218Z,3.00
2023-05-16T08:03:53.950Z,2.60
2023-05-16T08:06:22.529Z,3.20
2023-05-16T08:08:51.326Z,3.30
2023-05-16T08:11:22.765Z,3.00
2023-05-16T08:13:51.494Z,2.90
2023-05-16T08:16:20.107Z,3.10
2023-05-16T08:18:48.740Z,3.10
2023-05-16T08:21:17.287Z,2.80
2023-05-16T08:23:45.807Z,3.20
2023-05-16T08:26:14.349Z,2.90
2023-05-16T08:28:43.583Z,3.20
2023-05-16T08:31:12.137Z,3.20
2023-05-16T08:33:40.689Z,3.30
2023-05-16T08:36:10.209Z,2.90
2023-05-16T08:38:38.749Z,3.40
2023-05-16T08:41:07.495Z,3.30
2023-05-16T08:43:36.940Z,3.30
2023-05-16T08:46:08.093Z,2.70
2023-05-16T08:48:38.180Z,3.00
2023-05-16T08:51:09.084Z,3.00
2023-05-16T08:53:43.559Z,3.30
2023-05-16T08:56:13.563Z,3.50
2023-05-16T08:58:42.333Z,3.00
2023-05-16T09:01:11.417Z,3.40
2023-05-16T09:03:40.878Z,3.10
2023-05-16T09:06:09.398Z,3.40
2023-05-16T09:08:39.153Z,3.10
2023-05-16T09:11:08.474Z,3.40
2023-05-16T09:13:39.365Z,3.60
2023-05-16T09:16:13.314Z,3.30
2023-05-16T09:18:44.973Z,3.00
2023-05-16T09:21:14.179Z,3.30
2023-05-16T09:23:44.137Z,3.50
2023-05-16T09:26:12.633Z,3.30
2023-05-16T09:28:41.310Z,3.80
2023-05-16T09:31:27.302Z,3.50
2023-05-16T09:33:58.895Z,4.30
2023-05-16T09:36:27.605Z,3.40
2023-05-16T09:38:56.050Z,3.50
2023-05-16T09:41:24.622Z,3.30
2023-05-16T09:43:53.143Z,3.90
2023-05-16T09:46:27.775Z,3.50
2023-05-16T09:48:56.474Z,3.60
2023-05-16T09:51:24.969Z,3.20
2023-05-16T09:53:53.495Z,3.70
2023-05-16T09:56:21.958Z,3.80
2023-05-16T09:58:52.885Z,3.80
2023-05-16T10:01:21.373Z,4.20
2023-05-16T10:03:51.192Z,4.10
2023-05-16T10:06:20.235Z,3.60
2023-05-16T10:08:49.579Z,3.90
2023-05-16T10:11:19.176Z,3.70
2023-05-16T10:13:53.489Z,4.10
2023-05-16T10:16:24.230Z,3.70
2023-05-16T10:18:53.366Z,3.80
2023-05-16T10:21:23.856Z,3.70
2023-05-16T10:23:54.156Z,3.70
2023-05-16T10:26:23.826Z,3.40
2023-05-16T10:28:53.455Z,3.60
2023-05-16T10:31:22.321Z,3.60
2023-05-16T10:33:51.184Z,3.90
2023-05-16T10:36:19.987Z,3.30
2023-05-16T10:38:48.920Z,3.50
2023-05-16T10:41:18.617Z,3.80
2023-05-16T10:43:57.813Z,3.90
2023-05-16T10:46:29.416Z,3.70
2023-05-16T10:48:58.835Z,4.60
2023-05-16T10:51:35.579Z,4.30
2023-05-16T10:54:08.584Z,3.60
2023-05-16T10:56:37.273Z,4.30
2023-05-16T10:59:27.378Z,4.50
2023-05-16T11:01:56.985Z,4.20
2023-05-16T11:04:51.548Z,3.90
2023-05-16T11:07:21.935Z,4.00
2023-05-16T11:10:07.104Z,4.00
2023-05-16T11:12:52.593Z,4.10
2023-05-16T11:15:26.843Z,3.80
2023-05-16T11:18:09.576Z,3.50
2023-05-16T11:20:39.720Z,4.30
2023-05-16T11:23:17.300Z,4.10
2023-05-16T11:25:47.317Z,4.30
2023-05-16T11:28:15.828Z,4.20
2023-05-16T11:30:52.807Z,4.50
2023-05-16T11:33:21.631Z,4.60
2023-05-16T11:36:16.269Z,4.60
2023-05-16T11:38:45.214Z,5.20
2023-05-16T11:41:15.711Z,5.10
2023-05-16T11:43:45.777Z,4.30
2023-05-16T11:46:16.626Z,4.20
2023-05-16T11:48:46.651Z,5.10
2023-05-16T11:51:19.146Z,5.00
2023-05-16T11:53:50.276Z,4.00
2023-05-16T11:56:19.008Z,3.60
2023-05-16T11:58:50.946Z,3.90
2023-05-16T12:01:19.516Z,4.80
2023-05-16T12:04:00.533Z,4.50
2023-05-16T12:06:31.449Z,4.10
2023-05-16T12:09:02.549Z,3.80
2023-05-16T12:11:31.443Z,4.50
2023-05-16T12:14:00.044Z,3.70
2023-05-16T12:16:28.674Z,4.00
2023-05-16T12:18:57.470Z,3.70
2023-05-16T12:21:26.673Z,4.00
2023-05-16T12:23:58.938Z,3.90
2023-05-16T12:26:33.646Z,4.20
2023-05-16T12:29:04.326Z,3.40
2023-05-16T12:31:37.663Z,3.50
2023-05-16T12:34:27.402Z,3.70
2023-05-16T12:36:55.849Z,4.00
2023-05-16T12:39:24.444Z,3.90
2023-05-16T12:41:52.844Z,3.90
2023-05-16T12:44:21.422Z,3.70
2023-05-16T12:46:52.034Z,4.40
2023-05-16T12:49:22.089Z,3.50
2023-05-16T12:51:55.768Z,4.20
2023-05-16T12:54:24.294Z,3.90
2023-05-16T12:56:52.797Z,4.70
2023-05-16T12:59:21.281Z,4.50
2023-05-16T13:01:49.728Z,4.00
2023-05-16T13:04:20.282Z,4.80
2023-05-16T13:06:59.099Z,4.10
2023-05-16T13:09:38.249Z,3.80
2023-05-16T13:12:06.911Z,4.20
2023-05-16T13:14:35.338Z,4.30
2023-05-16T13:17:04.743Z,4.50
2023-05-16T13:19:33.371Z,4.30
2023-05-16T13:22:01.931Z,3.90
2023-05-16T13:24:30.795Z,3.50
2023-05-16T13:26:59.842Z,3.00
2023-05-16T13:29:28.400Z,3.20
2023-05-16T13:31:56.878Z,3.20
2023-05-16T13:34:25.419Z,2.90
2023-05-16T13:36:54.950Z,3.10
2023-05-16T13:39:24.019Z,3.10
2023-05-16T13:41:52.957Z,2.80
2023-05-16T13:44:22.794Z,3.10
2023-05-16T13:46:51.513Z,3.30
2023-05-16T13:49:20.062Z,3.00
2023-05-16T13:51:48.524Z,3.60
2023-05-16T13:54:17.405Z,4.90
2023-05-16T13:56:46.609Z,3.60
2023-05-16T13:59:23.703Z,3.60
2023-05-16T14:02:01.405Z,4.00
2023-05-16T14:04:29.916Z,3.20
2023-05-16T14:06:58.640Z,3.10
2023-05-16T14:09:27.154Z,3.40
2023-05-16T14:11:55.574Z,3.50
2023-05-16T14:14:24.001Z,3.20
2023-05-16T14:16:52.951Z,3.10
2023-05-16T14:19:21.927Z,2.80
2023-05-16T14:21:50.449Z,3.10
2023-05-16T14:24:18.971Z,3.20
2023-05-16T14:26:47.354Z,2.70
2023-05-16T14:29:15.707Z,3.00
2023-05-16T14:31:44.126Z,2.90
2023-05-16T14:34:12.552Z,2.70
2023-05-16T14:36:41.132Z,2.90
2023-05-16T14:39:10.041Z,2.80
2023-05-16T14:41:38.457Z,2.70
2023-05-16T14:44:06.937Z,3.00
2023-05-16T14:46:35.687Z,3.10
2023-05-16T14:49:04.125Z,3.30
2023-05-16T14:51:32.831Z,2.90
2023-05-16T14:54:01.456Z,2.70
2023-05-16T14:56:33.555Z,3.30
2023-05-16T14:59:02.710Z,3.00
2023-05-16T15:01:31.231Z,3.30
2023-05-16T15:03:59.683Z,3.10
2023-05-16T15:06:28.166Z,3.20
2023-05-16T15:08:56.722Z,3.10
2023-05-16T15:11:25.289Z,2.90
2023-05-16T15:13:54.329Z,3.40
2023-05-16T15:16:22.930Z,3.20
2023-05-16T15:18:51.511Z,3.40
2023-05-16T15:21:19.965Z,3.40
2023-05-16T15:23:50.180Z,3.00
2023-05-16T15:26:18.996Z,3.20
2023-05-16T15:28:47.413Z,3.10
2023-05-16T15:31:15.819Z,3.10
2023-05-16T15:33:48.221Z,2.90
2023-05-16T15:36:18.062Z,3.40
2023-05-16T15:38:47.694Z,2.70
2023-05-16T15:41:31.974Z,2.90
2023-05-16T15:44:05.275Z,3.10
2023-05-16T15:46:33.740Z,3.10
2023-05-16T15:49:02.245Z,3.10
2023-05-16T15:51:31.068Z,2.80
2023-05-16T15:53:59.614Z,2.90
2023-05-16T15:56:28.057Z,3.00
2023-05-16T15:58:56.716Z,2.90
2023-05-16T16:01:25.113Z,2.50
2023-05-16T16:03:53.730Z,2.90
2023-05-16T16:06:22.256Z,2.70
2023-05-16T16:08:51.003Z,2.60
2023-05-16T16:11:22.352Z,2.70
2023-05-16T16:13:51.372Z,2.80
2023-05-16T16:16:19.844Z,2.90
2023-05-16T16:18:48.432Z,2.90
2023-05-16T16:21:16.900Z,2.70
2023-05-16T16:23:45.299Z,2.80
2023-05-16T16:26:13.713Z,2.70
2023-05-16T16:28:42.213Z,2.80
2023-05-16T16:31:11.150Z,2.70
2023-05-16T16:33:39.760Z,2.90
2023-05-16T16:36:09.076Z,2.90
2023-05-16T16:38:37.523Z,2.50
2023-05-16T16:41:06.176Z,2.40
2023-05-16T16:43:34.900Z,2.80
2023-05-16T16:46:03.379Z,2.80
2023-05-16T16:48:34.362Z,3.00
2023-05-16T16:51:03.471Z,3.00
2023-05-16T16:53:32.536Z,2.60
2023-05-16T16:56:00.977Z,2.90
2023-05-16T16:58:29.488Z,2.60
2023-05-16T17:00:58.503Z,2.90
2023-05-16T17:03:27.008Z,2.50
2023-05-16T17:05:55.598Z,2.80
2023-05-16T17:08:24.058Z,2.90
2023-05-16T17:10:52.755Z,2.50
2023-05-16T17:13:21.216Z,2.40
2023-05-16T17:15:49.645Z,3.10
2023-05-16T17:18:18.141Z,2.80
2023-05-16T17:20:46.588Z,2.80
2023-05-16T17:23:14.994Z,2.90
2023-05-16T17:25:45.420Z,2.80
2023-05-16T17:28:14.222Z,2.50
2023-05-16T17:30:42.787Z,3.00
2023-05-16T17:33:11.211Z,3.50
2023-05-16T17:35:40.952Z,3.90
2023-05-16T17:38:10.503Z,4.10
2023-05-16T17:40:38.923Z,4.60
2023-05-16T17:43:07.427Z,3.80
2023-05-16T17:45:36.308Z,3.40
2023-05-16T17:48:05.229Z,3.00
2023-05-16T17:50:35.430Z,3.30
2023-05-16T17:53:03.802Z,3.40
2023-05-16T17:55:34.203Z,3.50
2023-05-16T17:58:03.628Z,3.10
2023-05-16T18:00:33.070Z,3.70
2023-05-16T18:03:01.555Z,3.40
2023-05-16T18:05:30.289Z,3.40
2023-05-16T18:07:58.933Z,4.40
2023-05-16T18:10:33.844Z,3.80
2023-05-16T18:13:16.760Z,3.40
2023-05-16T18:15:45.249Z,4.60
2023-05-16T18:18:13.805Z,5.30
2023-05-16T18:20:43.139Z,5.30
2023-05-16T18:23:12.188Z,5.10
2023-05-16T18:25:40.623Z,6.10
2023-05-16T18:28:09.110Z,4.70
2023-05-16T18:30:38.261Z,3.90
2023-05-16T18:33:06.815Z,4.30
2023-05-16T18:35:35.281Z,3.40
2023-05-16T18:38:04.121Z,3.80
2023-05-16T18:40:32.736Z,4.10
2023-05-16T18:43:01.339Z,3.80
2023-05-16T18:45:30.342Z,4.10
2023-05-16T18:47:58.882Z,4.10
2023-05-16T18:50:27.910Z,4.80
2023-05-16T18:52:57.692Z,3.90
2023-05-16T18:55:26.543Z,3.80
2023-05-16T18:57:55.281Z,4.00
2023-05-16T19:00:23.788Z,4.80
2023-05-16T19:02:52.452Z,4.40
2023-05-16T19:05:21.027Z,4.30
2023-05-16T19:07:49.558Z,4.20
2023-05-16T19:10:18.111Z,4.40
2023-05-16T19:12:49.314Z,4.60
2023-05-16T19:15:17.904Z,4.80
2023-05-16T19:17:47.305Z,5.10
2023-05-16T19:20:15.948Z,5.30
2023-05-16T19:22:44.328Z,4.30
2023-05-16T19:25:13.446Z,4.60
2023-05-16T19:27:43.036Z,4.60
2023-05-16T19:30:12.225Z,4.90
2023-05-16T19:32:40.768Z,5.10
2023-05-16T19:35:10.878Z,5.60
2023-05-16T19:37:39.366Z,4.50
2023-05-16T19:40:08.530Z,4.90
2023-05-16T19:42:37.087Z,5.10
2023-05-16T19:45:06.303Z,4.60
2023-05-16T19:47:34.904Z,4.20
2023-05-16T19:50:03.743Z,3.90
2023-05-16T19:52:32.242Z,4.50
2023-05-16T19:55:01.022Z,4.00
2023-05-16T19:57:29.433Z,4.30
2023-05-16T19:59:57.957Z,4.50
2023-05-16T20:02:26.715Z,4.40
2023-05-16T20:04:55.340Z,4.70
2023-05-16T20:07:24.370Z,4.90
2023-05-16T20:09:52.933Z,4.60
2023-05-16T20:12:21.432Z,4.90
2023-05-16T20:14:49.864Z,5.70
2023-05-16T20:17:18.257Z,5.20
2023-05-16T20:19:47.188Z,5.30
2023-05-16T20:22:15.698Z,4.80
2023-05-16T20:24:44.137Z,5.10
2023-05-16T20:27:12.708Z,5.70
2023-05-16T20:29:41.234Z,6.40
2023-05-16T20:32:09.669Z,4.70
2023-05-16T20:34:40.286Z,4.80
2023-05-16T20:37:09.959Z,4.90
2023-05-16T20:39:39.295Z,5.70
2023-05-16T20:42:11.479Z,5.70
2023-05-16T20:44:41.518Z,4.90
2023-05-16T20:47:10.069Z,4.30
2023-05-16T20:49:39.558Z,4.00
2023-05-16T20:52:07.952Z,3.50
2023-05-16T20:54:36.591Z,4.10
2023-05-16T20:57:05.615Z,4.00
2023-05-16T20:59:34.275Z,3.80
2023-05-16T21:02:02.816Z,3.90
2023-05-16T21:04:31.307Z,3.50
2023-05-16T21:06:59.696Z,3.80
2023-05-16T21:09:28.130Z,4.20
2023-05-16T21:11:58.687Z,4.00
2023-05-16T21:14:27.096Z,4.40
2023-05-16T21:16:55.491Z,3.70
2023-05-16T21:19:23.959Z,3.90
2023-05-16T21:21:52.436Z,4.10
2023-05-16T21:24:20.876Z,3.80
2023-05-16T21:26:49.237Z,3.70
2023-05-16T21:29:17.949Z,4.30
2023-05-16T21:31:46.337Z,3.30
2023-05-16T21:34:14.787Z,3.40
2023-05-16T21:36:43.151Z,3.90
2023-05-16T21:39:11.706Z,4.30
2023-05-16T21:41:40.104Z,3.80
2023-05-16T21:44:08.463Z,3.80
2023-05-16T21:46:36.834Z,4.30
2023-05-16T21:49:05.378Z,5.90
2023-05-16T21:51:33.788Z,6.00
2023-05-16T21:54:03.283Z,6.10
2023-05-16T21:56:31.716Z,6.50
2023-05-16T21:59:00.388Z,7.90
2023-05-16T22:01:29.585Z,6.90
2023-05-16T22:03:58.377Z,7.00
2023-05-16T22:06:26.984Z,6.30
2023-05-16T22:08:55.457Z,5.80
2023-05-16T22:11:23.923Z,5.40
2023-05-16T22:13:52.327Z,5.20
2023-05-16T22:16:20.712Z,5.20
2023-05-16T22:18:49.349Z,4.70
2023-05-16T22:21:17.896Z,5.20
2023-05-16T22:23:46.295Z,5.80
2023-05-16T22:26:14.758Z,6.10
2023-05-16T22:28:43.167Z,5.90
2023-05-16T22:31:11.528Z,5.30
2023-05-16T22:33:39.907Z,5.20
2023-05-16T22:36:08.667Z,5.10
2023-05-16T22:38:37.132Z,4.70
2023-05-16T22:41:05.615Z,4.40
2023-05-16T22:43:34.033Z,4.70
2023-05-16T22:46:03.279Z,4.60
2023-05-16T22:48:32.071Z,4.00
2023-05-16T22:51:01.009Z,4.20
2023-05-16T22:53:29.892Z,4.10
2023-05-16T22:55:58.256Z,4.30
2023-05-16T22:58:26.689Z,4.40
2023-05-16T23:00:55.167Z,5.00
2023-05-16T23:03:23.699Z,4.70
2023-05-16T23:05:52.085Z,5.00
2023-05-16T23:08:20.450Z,4.90
2023-05-16T23:10:48.850Z,5.50
2023-05-16T23:13:17.291Z,4.70
2023-05-16T23:15:45.773Z,4.20
2023-05-16T23:18:14.184Z,4.30
2023-05-16T23:20:42.627Z,4.20
2023-05-16T23:23:11.025Z,3.90
2023-05-16T23:25:39.404Z,4.80
2023-05-16T23:28:07.831Z,4.60
2023-05-16T23:30:36.303Z,4.40
2023-05-16T23:33:04.921Z,4.00
2023-05-16T23:35:33.398Z,4.30
2023-05-16T23:38:01.754Z,4.60
2023-05-16T23:40:30.154Z,4.50
2023-05-16T23:42:58.554Z,4.40
2023-05-16T23:45:28.121Z,4.10
2023-05-16T23:47:57.047Z,4.10
2023-05-16T23:50:25.546Z,4.30
2023-05-16T23:52:54.335Z,4.00
2023-05-16T23:55:22.908Z,4.00
2023-05-16T23:57:51.346Z,3.80
